createdAt,value
2018-03-06T00:13:42.074Z,16.33
2018-03-06T00:16:09.561Z,15.93
2018-03-06T00:18:37.068Z,17.57
2018-03-06T00:21:04.552Z,15.63
2018-03-06T00:23:32.053Z,15.63
2018-03-06T00:25:59.533Z,16.33
2018-03-06T00:28:28.049Z,16.77
2018-03-06T00:30:55.533Z,16.90
2018-03-06T00:33:23.064Z,16.33
2018-03-06T00:35:50.539Z,18.40
2018-03-06T00:38:18.049Z,17.70
2018-03-06T00:40:46.288Z,18.63
2018-03-06T00:43:13.761Z,18.00
2018-03-06T00:45:41.245Z,18.23
2018-03-06T00:48:08.712Z,17.90
2018-03-06T00:50:36.197Z,18.53
2018-03-06T00:53:03.687Z,18.33
2018-03-06T00:55:32.693Z,17.17
2018-03-06T00:58:00.934Z,18.50
2018-03-06T01:00:28.441Z,18.00
2018-03-06T01:02:55.910Z,18.50
2018-03-06T01:05:23.398Z,16.93
2018-03-06T01:07:50.868Z,17.90
2018-03-06T01:10:18.457Z,18.13
2018-03-06T01:12:46.697Z,18.87
2018-03-06T01:15:14.196Z,18.90
2018-03-06T01:17:42.428Z,18.13
2018-03-06T01:20:09.918Z,17.33
2018-03-06T01:22:37.388Z,17.37
2018-03-06T01:25:05.644Z,17.03
2018-03-06T01:27:34.621Z,16.93
2018-03-06T01:30:02.128Z,17.77
2018-03-06T01:32:29.610Z,17.83
2018-03-06T01:34:57.113Z,16.73
2018-03-06T01:37:24.597Z,16.97
2018-03-06T01:39:52.181Z,16.43
2018-03-06T01:42:19.660Z,18.03
2018-03-06T01:44:47.149Z,17.47
2018-03-06T01:47:15.428Z,16.97
2018-03-06T01:49:43.692Z,18.63
2018-03-06T01:52:11.169Z,18.47
2018-03-06T01:54:39.432Z,17.93
2018-03-06T01:57:06.913Z,18.83
2018-03-06T01:59:34.408Z,17.43
2018-03-06T02:02:01.881Z,17.90
2018-03-06T02:04:29.380Z,18.80
2018-03-06T02:06:57.622Z,20.00
2018-03-06T02:09:25.880Z,18.63
2018-03-06T02:11:53.361Z,17.97
2018-03-06T02:14:21.707Z,20.07
2018-03-06T02:16:49.213Z,19.47
2018-03-06T02:19:17.469Z,22.70
2018-03-06T02:21:44.942Z,21.00
2018-03-06T02:24:12.437Z,21.77
2018-03-06T02:26:39.908Z,23.07
2018-03-06T02:29:07.404Z,23.10
2018-03-06T02:31:34.886Z,23.07
2018-03-06T02:34:03.162Z,22.30
2018-03-06T02:36:31.409Z,22.30
2018-03-06T02:38:58.915Z,23.30
2018-03-06T02:41:26.383Z,22.57
2018-03-06T02:43:53.874Z,23.30
2018-03-06T02:46:21.345Z,23.83
2018-03-06T02:48:50.357Z,23.23
2018-03-06T02:51:18.591Z,23.30
2018-03-06T02:53:46.065Z,22.93
2018-03-06T02:56:13.566Z,23.73
2018-03-06T02:58:41.162Z,23.03
2018-03-06T03:01:09.429Z,23.00
2018-03-06T03:03:36.919Z,25.03
2018-03-06T03:06:04.421Z,25.17
2018-03-06T03:08:31.895Z,25.87
2018-03-06T03:10:59.393Z,25.00
2018-03-06T03:13:26.968Z,24.43
2018-03-06T03:15:54.468Z,24.60
2018-03-06T03:18:21.941Z,25.97
2018-03-06T03:20:50.206Z,25.60
2018-03-06T03:23:17.768Z,25.40
2018-03-06T03:25:45.269Z,24.80
2018-03-06T03:28:12.736Z,25.60
2018-03-06T03:30:40.229Z,25.37
2018-03-06T03:33:07.712Z,24.23
2018-03-06T03:35:35.964Z,25.50
2018-03-06T03:38:03.449Z,26.30
2018-03-06T03:40:31.719Z,26.30
2018-03-06T03:42:59.968Z,25.87
2018-03-06T03:45:28.274Z,25.73
2018-03-06T03:47:56.513Z,26.57
2018-03-06T03:50:24.008Z,25.87
2018-03-06T03:52:52.253Z,25.83
2018-03-06T03:55:19.748Z,28.47
2018-03-06T03:57:47.332Z,25.63
2018-03-06T04:00:14.827Z,26.57
2018-03-06T04:02:42.300Z,26.87
2018-03-06T04:05:09.812Z,26.43
2018-03-06T04:07:37.344Z,26.73
2018-03-06T04:10:04.836Z,26.83
2018-03-06T04:12:32.308Z,26.30
2018-03-06T04:14:59.801Z,27.20
2018-03-06T04:17:28.050Z,27.23
2018-03-06T04:19:55.539Z,26.80
2018-03-06T04:22:23.776Z,26.57
2018-03-06T04:24:51.273Z,27.30
2018-03-06T04:27:19.505Z,26.70
2018-03-06T04:29:47.004Z,27.83
2018-03-06T04:32:15.245Z,28.10
2018-03-06T04:34:42.730Z,28.60
2018-03-06T04:37:10.210Z,28.17
2018-03-06T04:39:37.692Z,27.40
2018-03-06T04:42:05.175Z,27.47
2018-03-06T04:44:32.669Z,30.17
2018-03-06T04:47:00.901Z,28.30
2018-03-06T04:49:28.434Z,28.67
2018-03-06T04:51:55.912Z,29.10
2018-03-06T04:54:23.413Z,29.63
2018-03-06T04:56:51.644Z,28.47
2018-03-06T04:59:19.141Z,28.17
2018-03-06T05:01:47.372Z,26.53
2018-03-06T05:04:14.846Z,27.80
2018-03-06T05:06:42.341Z,30.27
2018-03-06T05:09:10.588Z,28.33
2018-03-06T05:11:38.093Z,28.47
2018-03-06T05:14:05.565Z,29.37
2018-03-06T05:16:33.053Z,27.97
2018-03-06T05:19:00.516Z,30.60
2018-03-06T05:21:28.013Z,28.83
2018-03-06T05:23:55.477Z,28.13
2018-03-06T05:26:22.964Z,28.33
2018-03-06T05:28:50.449Z,29.50
2018-03-06T05:31:17.966Z,28.50
2018-03-06T05:33:45.448Z,29.80
2018-03-06T05:36:12.952Z,29.73
2018-03-06T05:38:40.424Z,28.10
2018-03-06T05:41:07.920Z,26.60
2018-03-06T05:43:35.397Z,29.83
2018-03-06T05:46:02.883Z,27.97
2018-03-06T05:48:30.416Z,30.40
2018-03-06T05:50:57.911Z,27.80
2018-03-06T05:53:25.380Z,31.10
2018-03-06T05:55:52.872Z,30.97
2018-03-06T05:58:20.357Z,30.57
2018-03-06T06:00:48.624Z,31.23
2018-03-06T06:03:16.113Z,30.40
2018-03-06T06:05:43.605Z,30.17
2018-03-06T06:08:11.095Z,31.63
2018-03-06T06:10:38.603Z,31.50
2018-03-06T06:13:06.076Z,30.07
2018-03-06T06:15:33.590Z,30.63
2018-03-06T06:18:01.817Z,31.73
2018-03-06T06:20:29.306Z,31.23
2018-03-06T06:22:56.769Z,32.00
2018-03-06T06:25:25.029Z,29.87
2018-03-06T06:27:52.493Z,29.67
2018-03-06T06:30:19.991Z,29.63
2018-03-06T06:32:47.467Z,32.00
2018-03-06T06:35:14.940Z,29.60
2018-03-06T06:37:42.424Z,30.53
2018-03-06T06:40:10.722Z,30.23
2018-03-06T06:42:38.953Z,31.37
2018-03-06T06:45:06.433Z,30.60
2018-03-06T06:47:33.904Z,32.13
2018-03-06T06:50:02.151Z,33.37
2018-03-06T06:52:29.617Z,33.13
2018-03-06T06:54:57.116Z,32.67
2018-03-06T06:57:24.596Z,33.30
2018-03-06T06:59:52.058Z,33.40
2018-03-06T07:02:19.539Z,35.10
2018-03-06T07:04:47.010Z,33.53
2018-03-06T07:07:14.492Z,33.70
2018-03-06T07:09:42.760Z,35.97
2018-03-06T07:12:11.001Z,36.63
2018-03-06T07:14:38.466Z,40.37
2018-03-06T07:17:05.948Z,36.60
2018-03-06T07:19:33.436Z,40.70
2018-03-06T07:22:00.912Z,38.77
2018-03-06T07:24:29.154Z,35.90
2018-03-06T07:26:57.409Z,35.90
2018-03-06T07:29:24.881Z,35.17
2018-03-06T07:31:52.398Z,36.00
2018-03-06T07:34:20.612Z,35.03
2018-03-06T07:36:48.095Z,32.47
2018-03-06T07:39:15.558Z,33.30
2018-03-06T07:41:43.819Z,32.90
2018-03-06T07:44:11.388Z,32.20
2018-03-06T07:46:38.872Z,34.23
2018-03-06T07:49:06.345Z,34.67
2018-03-06T07:51:33.828Z,34.93
2018-03-06T07:54:01.297Z,33.67
2018-03-06T07:56:28.768Z,36.33
2018-03-06T07:58:56.234Z,35.90
2018-03-06T08:01:24.489Z,36.97
2018-03-06T08:03:51.982Z,37.43
2018-03-06T08:06:20.221Z,36.07
2018-03-06T08:08:47.729Z,37.30
2018-03-06T08:11:15.200Z,37.47
2018-03-06T08:13:42.655Z,36.97
2018-03-06T08:16:10.173Z,36.47
2018-03-06T08:18:37.625Z,37.57
2018-03-06T08:21:05.108Z,36.37
2018-03-06T08:23:32.584Z,37.57
2018-03-06T08:26:00.076Z,37.03
2018-03-06T08:28:27.532Z,35.70
2018-03-06T08:30:55.007Z,36.33
2018-03-06T08:33:22.464Z,37.93
2018-03-06T08:35:49.952Z,36.53
2018-03-06T08:38:17.445Z,35.97
2018-03-06T08:40:44.884Z,38.50
2018-03-06T08:43:13.121Z,37.30
2018-03-06T08:45:40.597Z,36.30
2018-03-06T08:48:08.062Z,37.97
2018-03-06T08:50:35.547Z,37.13
2018-03-06T08:53:03.779Z,37.00
2018-03-06T08:55:31.260Z,38.03
2018-03-06T08:57:58.736Z,36.67
2018-03-06T09:00:26.955Z,36.43
2018-03-06T09:02:54.452Z,37.37
2018-03-06T09:05:22.698Z,37.13
2018-03-06T09:07:50.180Z,35.73
2018-03-06T09:10:17.636Z,37.77
2018-03-06T09:12:45.885Z,38.27
2018-03-06T09:15:13.360Z,36.93
2018-03-06T09:17:41.175Z,38.33
2018-03-06T09:20:08.682Z,36.87
2018-03-06T09:22:36.926Z,36.83
2018-03-06T09:25:04.440Z,37.63
2018-03-06T09:27:31.927Z,37.07
2018-03-06T09:29:59.384Z,37.10
2018-03-06T09:32:26.862Z,39.10
2018-03-06T09:34:54.342Z,36.80
2018-03-06T09:37:22.580Z,37.63
2018-03-06T09:39:50.063Z,37.90
2018-03-06T09:42:17.536Z,38.93
2018-03-06T09:44:45.795Z,38.47
2018-03-06T09:47:13.496Z,40.33
2018-03-06T09:49:41.005Z,38.37
2018-03-06T09:52:08.495Z,38.23
2018-03-06T09:54:36.078Z,38.67
2018-03-06T09:57:03.556Z,37.57
2018-03-06T09:59:31.038Z,40.10
2018-03-06T10:01:58.520Z,39.90
2018-03-06T10:04:26.783Z,38.43
2018-03-06T10:06:55.043Z,38.67
2018-03-06T10:09:22.521Z,38.57
2018-03-06T10:11:50.775Z,39.13
2018-03-06T10:14:18.237Z,36.77
2018-03-06T10:16:45.746Z,39.70
2018-03-06T10:19:13.212Z,38.27
2018-03-06T10:21:40.698Z,37.37
2018-03-06T10:24:08.170Z,37.17
2018-03-06T10:26:35.662Z,38.10
2018-03-06T10:29:03.145Z,38.30
2018-03-06T10:31:31.394Z,38.67
2018-03-06T10:33:58.873Z,39.00
2018-03-06T10:36:26.399Z,39.37
2018-03-06T10:38:54.617Z,39.07
2018-03-06T10:41:22.112Z,41.10
2018-03-06T10:43:50.376Z,38.27
2018-03-06T10:46:18.653Z,38.50
2018-03-06T10:48:46.136Z,38.90
2018-03-06T10:51:14.618Z,40.43
2018-03-06T10:53:42.857Z,40.10
2018-03-06T10:56:10.377Z,39.60
2018-03-06T10:58:37.859Z,40.27
2018-03-06T11:01:05.332Z,39.17
2018-03-06T11:03:32.902Z,39.73
2018-03-06T11:06:00.370Z,38.93
2018-03-06T11:08:28.610Z,40.00
2018-03-06T11:10:56.079Z,39.10
2018-03-06T11:13:23.562Z,44.88
2018-03-06T11:15:51.779Z,41.57
2018-03-06T11:18:19.263Z,40.40
2018-03-06T11:20:46.741Z,40.63
2018-03-06T11:23:14.223Z,41.37
2018-03-06T11:25:41.694Z,40.87
2018-03-06T11:28:09.177Z,40.57
2018-03-06T11:30:36.635Z,40.27
2018-03-06T11:33:04.118Z,38.93
2018-03-06T11:35:31.587Z,39.80
2018-03-06T11:37:59.086Z,40.37
2018-03-06T11:40:26.544Z,40.73
2018-03-06T11:42:54.041Z,40.33
2018-03-06T11:45:21.516Z,38.23
2018-03-06T11:47:49.766Z,39.90
2018-03-06T11:50:17.220Z,40.27
2018-03-06T11:52:44.743Z,38.30
2018-03-06T11:55:12.200Z,38.93
2018-03-06T11:57:39.673Z,38.83
2018-03-06T12:00:07.133Z,37.53
2018-03-06T12:02:34.629Z,39.17
2018-03-06T12:05:02.201Z,37.83
2018-03-06T12:07:30.462Z,38.30
2018-03-06T12:09:57.942Z,36.77
2018-03-06T12:12:26.184Z,38.57
2018-03-06T12:14:53.645Z,37.47
2018-03-06T12:17:21.156Z,39.77
2018-03-06T12:19:48.613Z,37.50
2018-03-06T12:22:16.098Z,40.57
2018-03-06T12:24:43.583Z,39.60
2018-03-06T12:27:11.063Z,39.00
2018-03-06T12:29:39.289Z,39.30
2018-03-06T12:32:06.768Z,38.63
2018-03-06T12:34:34.238Z,38.97
2018-03-06T12:37:02.505Z,38.40
2018-03-06T12:39:29.988Z,39.67
2018-03-06T12:41:57.492Z,39.70
2018-03-06T12:44:24.960Z,38.43
2018-03-06T12:46:52.453Z,37.33
2018-03-06T12:49:20.721Z,38.83
2018-03-06T12:51:48.191Z,37.77
2018-03-06T12:54:16.798Z,38.77
2018-03-06T12:56:44.290Z,38.73
2018-03-06T12:59:11.773Z,39.90
2018-03-06T13:01:40.012Z,40.50
2018-03-06T13:04:07.510Z,37.80
2018-03-06T13:06:35.738Z,38.00
2018-03-06T13:09:03.214Z,38.67
2018-03-06T13:11:30.696Z,39.63
2018-03-06T13:13:58.186Z,38.27
2018-03-06T13:16:25.667Z,38.80
2018-03-06T13:18:53.152Z,38.30
2018-03-06T13:21:21.395Z,36.73
2018-03-06T13:23:48.900Z,34.93
2018-03-06T13:26:17.162Z,34.40
2018-03-06T13:28:44.645Z,35.10
2018-03-06T13:31:12.873Z,36.77
2018-03-06T13:33:40.364Z,36.93
2018-03-06T13:36:07.933Z,38.87
2018-03-06T13:38:36.758Z,39.13
2018-03-06T13:41:04.234Z,38.73
2018-03-06T13:43:31.709Z,39.23
2018-03-06T13:45:59.193Z,37.07
2018-03-06T13:48:27.441Z,39.30
2018-03-06T13:50:54.917Z,36.17
2018-03-06T13:53:22.408Z,37.80
2018-03-06T13:55:49.914Z,37.30
2018-03-06T13:58:17.419Z,33.93
2018-03-06T14:00:44.884Z,33.30
2018-03-06T14:03:12.393Z,32.13
2018-03-06T14:05:39.869Z,33.50
2018-03-06T14:08:08.163Z,35.83
2018-03-06T14:10:36.393Z,36.97
2018-03-06T14:13:03.870Z,36.67
2018-03-06T14:15:31.355Z,37.60
2018-03-06T14:17:59.597Z,36.43
2018-03-06T14:20:28.581Z,36.27
2018-03-06T14:22:56.061Z,34.67
2018-03-06T14:25:24.306Z,37.23
2018-03-06T14:27:51.792Z,37.13
2018-03-06T14:30:20.037Z,35.97
2018-03-06T14:32:47.564Z,36.33
2018-03-06T14:35:15.122Z,35.37
2018-03-06T14:37:42.681Z,37.03
2018-03-06T14:40:10.140Z,36.07
2018-03-06T14:42:37.698Z,36.77
2018-03-06T14:45:05.212Z,36.00
2018-03-06T14:47:32.696Z,36.23
2018-03-06T14:50:00.168Z,35.57
2018-03-06T14:52:27.641Z,36.47
2018-03-06T14:54:55.113Z,36.10
2018-03-06T14:57:22.705Z,36.73
2018-03-06T14:59:50.945Z,37.17
2018-03-06T15:02:18.427Z,35.47
2018-03-06T15:04:46.681Z,34.73
2018-03-06T15:07:14.148Z,34.23
2018-03-06T15:09:41.628Z,33.90
2018-03-06T15:12:09.945Z,35.47
2018-03-06T15:14:37.465Z,36.73
2018-03-06T15:17:05.081Z,38.00
2018-03-06T15:19:32.573Z,37.27
2018-03-06T15:22:00.044Z,36.73
2018-03-06T15:24:28.307Z,38.20
2018-03-06T15:26:55.767Z,38.20
2018-03-06T15:29:23.244Z,39.17
2018-03-06T15:31:51.481Z,39.03
2018-03-06T15:34:18.999Z,39.13
2018-03-06T15:36:46.469Z,37.63
2018-03-06T15:39:14.006Z,37.83
2018-03-06T15:41:41.509Z,38.37
2018-03-06T15:44:08.992Z,37.13
2018-03-06T15:46:37.237Z,37.87
2018-03-06T15:49:04.739Z,36.43
2018-03-06T15:51:32.977Z,37.30
2018-03-06T15:54:00.469Z,35.10
2018-03-06T15:56:28.710Z,37.67
2018-03-06T15:58:56.201Z,35.17
2018-03-06T16:01:24.440Z,35.60
2018-03-06T16:03:51.921Z,35.23
2018-03-06T16:06:20.159Z,35.47
2018-03-06T16:08:47.652Z,35.77
2018-03-06T16:11:15.136Z,35.70
2018-03-06T16:13:43.413Z,36.23
2018-03-06T16:16:11.649Z,35.50
2018-03-06T16:18:39.132Z,36.23
2018-03-06T16:21:07.365Z,37.97
2018-03-06T16:23:34.850Z,36.70
2018-03-06T16:26:03.088Z,36.07
2018-03-06T16:28:30.576Z,36.63
2018-03-06T16:30:58.046Z,36.40
2018-03-06T16:33:25.606Z,35.07
2018-03-06T16:35:53.840Z,36.63
2018-03-06T16:38:21.334Z,36.07
2018-03-06T16:40:48.810Z,35.47
2018-03-06T16:43:17.066Z,36.13
2018-03-06T16:45:44.527Z,36.87
2018-03-06T16:48:12.014Z,37.73
2018-03-06T16:50:39.486Z,37.00
2018-03-06T16:53:06.977Z,38.43
2018-03-06T16:55:34.452Z,38.07
2018-03-06T16:58:01.939Z,37.87
2018-03-06T17:00:29.427Z,36.13
2018-03-06T17:02:56.928Z,36.80
2018-03-06T17:05:24.402Z,36.30
2018-03-06T17:07:52.637Z,35.07
2018-03-06T17:10:20.155Z,36.40
2018-03-06T17:12:48.370Z,37.50
2018-03-06T17:15:15.873Z,35.60
2018-03-06T17:17:43.531Z,35.43
2018-03-06T17:20:11.884Z,36.90
2018-03-06T17:22:40.133Z,34.63
2018-03-06T17:25:07.636Z,35.90
2018-03-06T17:27:35.105Z,33.93
2018-03-06T17:30:02.613Z,34.57
2018-03-06T17:32:30.094Z,35.50
2018-03-06T17:34:57.581Z,34.90
2018-03-06T17:37:25.062Z,35.97
2018-03-06T17:39:52.546Z,36.30
2018-03-06T17:42:20.008Z,36.33
2018-03-06T17:44:48.278Z,34.00
2018-03-06T17:47:15.908Z,36.23
2018-03-06T17:49:43.517Z,37.00
2018-03-06T17:52:11.785Z,35.63
2018-03-06T17:54:40.057Z,36.23
2018-03-06T17:57:08.297Z,37.07
2018-03-06T17:59:35.777Z,37.30
2018-03-06T18:02:03.309Z,39.10
2018-03-06T18:04:30.763Z,38.13
2018-03-06T18:06:58.254Z,35.80
2018-03-06T18:09:25.739Z,35.73
2018-03-06T18:11:53.226Z,37.77
2018-03-06T18:14:21.153Z,36.30
2018-03-06T18:16:49.384Z,37.47
2018-03-06T18:19:16.899Z,35.53
2018-03-06T18:21:44.373Z,38.67
2018-03-06T18:24:11.862Z,36.57
2018-03-06T18:26:39.374Z,36.30
2018-03-06T18:33:51.220Z,37.23
2018-03-06T18:36:18.691Z,38.07
2018-03-06T18:38:46.177Z,39.47
2018-03-06T18:41:13.644Z,38.10
2018-03-06T18:43:41.913Z,41.17
2018-03-06T18:46:09.384Z,39.33
2018-03-06T18:48:37.626Z,40.53
2018-03-06T18:51:15.545Z,40.17
2018-03-06T18:53:43.010Z,41.13
2018-03-06T18:56:10.497Z,39.30
2018-03-06T18:58:37.975Z,41.13
2018-03-06T19:04:17.240Z,41.13
2018-03-06T19:07:06.424Z,41.57
2018-03-06T19:09:33.934Z,40.03
2018-03-06T19:12:01.502Z,40.53
2018-03-06T19:14:29.881Z,42.07
2018-03-06T19:16:57.440Z,41.63
2018-03-06T19:19:24.904Z,40.47
2018-03-06T19:21:52.400Z,39.90
2018-03-06T19:24:20.265Z,40.90
2018-03-06T19:26:47.749Z,41.07
2018-03-06T19:29:15.981Z,43.20
2018-03-06T19:31:43.469Z,40.50
2018-03-06T19:34:11.739Z,42.17
2018-03-06T19:36:40.012Z,41.60
2018-03-06T19:39:07.477Z,42.77
2018-03-06T19:41:34.962Z,40.37
2018-03-06T19:44:02.447Z,41.20
2018-03-06T19:46:29.929Z,42.33
2018-03-06T19:48:57.446Z,41.67
2018-03-06T19:51:24.913Z,39.77
2018-03-06T19:53:52.426Z,40.73
2018-03-06T19:56:19.893Z,36.00
2018-03-06T19:58:48.163Z,36.50
2018-03-06T20:01:16.406Z,37.10
2018-03-06T20:03:43.894Z,35.87
2018-03-06T20:08:38.092Z,36.57
2018-03-06T20:11:06.340Z,35.13
2018-03-06T20:13:33.826Z,37.43
2018-03-06T20:16:02.069Z,35.07
2018-03-06T20:18:29.555Z,36.53
2018-03-06T20:20:57.013Z,36.07
2018-03-06T20:23:24.526Z,34.27
2018-03-06T20:25:57.742Z,35.30
2018-03-06T20:28:25.259Z,36.63
2018-03-06T20:30:58.362Z,34.53
2018-03-06T20:33:25.847Z,34.33
2018-03-06T20:35:53.309Z,34.50
2018-03-06T20:38:26.613Z,33.20
2018-03-06T20:40:54.088Z,34.53
2018-03-06T20:43:22.365Z,35.67
2018-03-06T20:45:55.586Z,33.87
2018-03-06T20:48:23.084Z,35.47
2018-03-06T20:50:50.557Z,33.83
2018-03-06T20:53:23.601Z,36.00
2018-03-06T20:55:51.069Z,32.27
2018-03-06T20:58:18.833Z,34.30
2018-03-06T21:00:46.296Z,33.30
2018-03-06T21:03:14.165Z,33.70
2018-03-06T21:05:41.635Z,33.43
2018-03-06T21:08:09.137Z,34.97
2018-03-06T21:10:36.597Z,37.27
2018-03-06T21:13:04.137Z,36.40
2018-03-06T21:15:31.602Z,38.27
2018-03-06T21:17:59.069Z,35.37
2018-03-06T21:20:26.561Z,36.43
2018-03-06T21:22:54.049Z,36.30
2018-03-06T21:25:21.530Z,36.37
2018-03-06T21:27:49.012Z,35.43
2018-03-06T21:30:16.521Z,35.90
2018-03-06T21:32:43.999Z,34.63
2018-03-06T21:35:12.259Z,34.77
2018-03-06T21:37:40.489Z,33.90
2018-03-06T21:40:08.006Z,32.17
2018-03-06T21:42:36.236Z,33.90
2018-03-06T21:45:03.837Z,33.17
2018-03-06T21:47:32.061Z,31.83
2018-03-06T21:49:59.527Z,31.80
2018-03-06T21:52:27.017Z,34.70
2018-03-06T21:54:54.511Z,32.63
2018-03-06T21:57:22.021Z,31.57
2018-03-06T21:59:49.488Z,31.83
2018-03-06T22:02:16.969Z,28.60
2018-03-06T22:04:44.454Z,28.60
2018-03-06T22:07:11.951Z,27.27
2018-03-06T22:09:40.176Z,28.40
2018-03-06T22:12:07.654Z,23.70
2018-03-06T22:14:35.121Z,21.30
2018-03-06T22:17:02.617Z,19.80
2018-03-06T22:19:30.177Z,18.17
2018-03-06T22:21:57.645Z,18.50
2018-03-06T22:24:25.891Z,17.70
2018-03-06T22:26:53.355Z,18.53
2018-03-06T22:29:20.837Z,17.53
2018-03-06T22:31:49.277Z,17.33
2018-03-06T22:34:16.756Z,16.30
2018-03-06T22:36:44.220Z,16.43
2018-03-06T22:39:11.701Z,17.00
2018-03-06T22:41:39.951Z,16.67
2018-03-06T22:44:07.432Z,16.37
2018-03-06T22:46:35.665Z,16.83
2018-03-06T22:49:03.148Z,16.47
2018-03-06T22:51:30.622Z,15.57
2018-03-06T22:53:58.988Z,15.03
2018-03-06T22:56:26.455Z,15.20
2018-03-06T22:58:54.699Z,15.17
2018-03-06T23:01:22.931Z,15.37
2018-03-06T23:03:50.423Z,15.57
2018-03-06T23:06:17.898Z,14.90
2018-03-06T23:08:46.148Z,15.33
2018-03-06T23:11:13.634Z,14.10
2018-03-06T23:13:41.869Z,14.00
2018-03-06T23:16:09.353Z,15.27
2018-03-06T23:18:36.813Z,13.83
2018-03-06T23:21:04.301Z,13.50
2018-03-06T23:23:31.802Z,12.70
2018-03-06T23:25:59.295Z,13.23
2018-03-06T23:28:27.532Z,13.40
2018-03-06T23:30:55.021Z,13.30
2018-03-06T23:33:22.482Z,13.57
2018-03-06T23:35:49.961Z,13.50
2018-03-06T23:38:17.425Z,13.23
2018-03-06T23:40:44.904Z,12.53
2018-03-06T23:43:12.363Z,12.23
2018-03-06T23:45:39.867Z,13.03
2018-03-06T23:48:07.417Z,13.57
2018-03-06T23:50:34.904Z,13.03
2018-03-06T23:53:03.134Z,13.00
2018-03-06T23:55:30.609Z,12.73
2018-03-06T23:57:58.071Z,13.13
